Time;durP1;ratioP1;P1;durP2;ratioP2;P2;SDS_P1;SDS_P2;PMS_P1;PMS_P2;Temp;Humidity;BMP_temperature;BMP_pressure;BME280_temperature;BME280_humidity;BME280_pressure;Samples;Min_cycle;Max_cycle;Signal;HPM_P1;HPM_P2
2023/03/29 00:01:06;;;;;;;3.00;1.23;;;;;;;6.15;39.32;99742.50;4974380;28;20062;-80
2023/03/29 00:03:32;;;;;;;2.80;1.40;;;;;;;5.74;38.99;99673.78;4974658;28;20113;-78
2023/03/29 00:06:02;;;;;;;3.90;1.48;;;;;;;6.15;38.82;99739.03;4974507;28;20046;-78
2023/03/29 00:08:36;;;;;;;3.17;1.30;;;;;;;5.46;39.28;99642.44;4974533;28;20022;-79
2023/03/29 00:11:02;;;;;;;1.90;1.30;;;;;;;5.48;38.93;99690.25;4974368;28;20027;-78
2023/03/29 00:13:28;;;;;;;2.80;1.27;;;;;;;6.02;39.21;99748.06;4974291;28;20049;-78
2023/03/29 00:15:55;;;;;;;2.35;1.45;;;;;;;5.90;39.58;99722.97;4974262;28;20555;-78
2023/03/29 00:18:21;;;;;;;3.60;1.40;;;;;;;6.01;39.15;99728.06;4974356;28;20027;-78
2023/03/29 00:20:56;;;;;;;2.83;1.33;;;;;;;6.04;39.07;99722.53;4985796;28;20031;-80
2023/03/29 00:23:22;;;;;;;1.50;1.30;;;;;;;5.31;38.78;99621.97;4998005;28;20037;-78
2023/03/29 00:25:47;;;;;;;3.60;1.40;;;;;;;6.19;38.84;99751.72;4974185;28;20027;-79
2023/03/29 00:28:13;;;;;;;2.92;1.38;;;;;;;6.20;38.78;99755.97;4974090;28;20062;-78
2023/03/29 00:30:39;;;;;;;3.00;1.60;;;;;;;6.25;38.52;99753.75;4973934;28;20166;-78
2023/03/29 00:33:06;;;;;;;3.77;1.30;;;;;;;5.36;38.72;99627.59;4973984;28;20077;-79
2023/03/29 00:35:31;;;;;;;2.92;1.50;;;;;;;5.90;38.77;99694.16;4973941;28;20053;-78
2023/03/29 00:37:57;;;;;;;2.63;1.30;;;;;;;6.10;38.37;99751.75;4989200;28;20125;-79
2023/03/29 00:40:22;;;;;;;1.90;1.33;;;;;;;5.37;38.86;99676.38;4972632;28;20033;-78
2023/03/29 00:42:48;;;;;;;1.48;1.38;;;;;;;5.94;38.75;99758.41;4973828;28;20563;-78
2023/03/29 00:45:26;;;;;;;4.13;1.65;;;;;;;5.58;38.53;99693.69;4973251;28;20038;-79
2023/03/29 00:47:51;;;;;;;3.53;1.70;;;;;;;6.09;39.08;99765.84;4988575;28;20034;-78
2023/03/29 00:50:28;;;;;;;4.17;1.43;;;;;;;6.01;38.88;99756.06;4973691;28;20031;-78
2023/03/29 00:53:13;;;;;;;2.63;1.40;;;;;;;6.00;38.84;99760.47;4973663;28;20027;-78
2023/03/29 00:55:42;;;;;;;2.67;1.40;;;;;;;5.99;38.88;99764.06;4973711;28;20500;-78
2023/03/29 00:58:11;;;;;;;5.18;2.00;;;;;;;6.03;38.39;99770.69;4973626;28;20113;-78
2023/03/29 01:00:47;;;;;;;4.20;1.98;;;;;;;5.51;39.18;99718.78;4973216;28;20463;-78
2023/03/29 01:03:23;;;;;;;3.53;1.73;;;;;;;5.98;38.75;99766.84;4973466;28;20030;-78
2023/03/29 01:05:52;;;;;;;2.87;1.70;;;;;;;5.20;38.54;99643.06;4988293;28;20026;-78
2023/03/29 01:08:40;;;;;;;4.20;1.70;;;;;;;5.67;38.83;99714.59;4973306;28;20027;-79
2023/03/29 01:11:16;;;;;;;1.77;1.50;;;;;;;5.95;38.68;99778.44;4973111;28;20111;-78
2023/03/29 01:13:50;;;;;;;3.23;1.40;;;;;;;5.91;38.90;99800.63;4973194;28;20058;-78
2023/03/29 01:16:18;;;;;;;2.13;1.70;;;;;;;5.82;38.75;99766.53;5004527;28;20084;-78
2023/03/29 01:18:45;;;;;;;2.57;1.60;;;;;;;5.54;39.04;99770.88;4973210;28;20424;-78
2023/03/29 01:21:22;;;;;;;2.43;1.70;;;;;;;5.77;39.09;99776.63;4973268;28;20027;-78
2023/03/29 01:24:35;;;;;;;4.03;1.87;;;;;;;5.76;39.35;99786.28;5004421;28;20070;-78
2023/03/29 01:27:38;;;;;;;3.17;1.77;;;;;;;5.72;39.49;99790.97;4967824;28;20552;-78
2023/03/29 01:30:17;;;;;;;2.97;1.80;;;;;;;5.38;39.01;99748.72;4939374;29;20599;-78
2023/03/29 01:32:49;;;;;;;3.50;2.10;;;;;;;5.46;39.13;99774.19;4970317;28;20504;-78
2023/03/29 01:35:18;;;;;;;;;;;;;;;5.50;39.44;99803.56;4973490;28;20508;-78
2023/03/29 01:37:48;;;;;;;3.03;1.97;;;;;;;5.64;39.34;99803.94;4972897;28;20402;-78
2023/03/29 01:40:14;;;;;;;3.37;2.07;;;;;;;5.23;39.32;99749.28;4972911;28;20089;-78
2023/03/29 01:43:07;;;;;;;2.40;2.10;;;;;;;5.35;39.09;99749.00;4972790;28;20432;-79
2023/03/29 01:45:40;;;;;;;2.00;1.80;;;;;;;5.71;38.94;99805.03;4972690;28;20492;-79
2023/03/29 01:48:15;;;;;;;4.60;2.27;;;;;;;5.78;39.18;99828.06;4972678;28;20093;-78
2023/03/29 01:50:43;;;;;;;2.10;1.90;;;;;;;5.68;39.34;99828.91;4972725;28;20390;-78
2023/03/29 01:53:33;;;;;;;1.87;1.67;;;;;;;5.37;38.97;99790.75;4972667;28;20027;-78
2023/03/29 01:56:10;;;;;;;3.80;1.90;;;;;;;5.54;39.05;99803.13;4971998;28;20038;-78
2023/03/29 01:58:39;;;;;;;2.57;2.20;;;;;;;5.47;38.81;99812.50;4972846;28;20033;-78
2023/03/29 02:01:09;;;;;;;2.33;2.10;;;;;;;5.56;39.03;99819.53;4986864;28;20142;-78
2023/03/29 02:03:41;;;;;;;2.77;2.10;;;;;;;5.64;38.94;99838.00;4971879;28;20022;-78
2023/03/29 02:06:10;;;;;;;3.65;2.45;;;;;;;5.58;39.00;99870.00;4971773;28;20039;-78
2023/03/29 02:08:37;;;;;;;2.97;2.30;;;;;;;5.25;39.30;99802.31;4971682;28;20556;-78
2023/03/29 02:11:03;;;;;;;3.77;2.40;;;;;;;5.06;39.40;99772.53;4971871;28;20069;-79
2023/03/29 02:13:29;;;;;;;5.23;2.40;;;;;;;5.09;39.15;99798.44;4971728;28;20415;-78
2023/03/29 02:15:58;;;;;;;5.07;2.60;;;;;;;5.29;39.48;99822.03;4971712;28;20106;-78
2023/03/29 02:18:24;;;;;;;3.40;2.43;;;;;;;4.78;39.46;99736.72;4971581;28;20034;-78
2023/03/29 02:20:52;;;;;;;4.27;2.83;;;;;;;5.09;38.98;99769.66;4971646;28;20081;-78
2023/03/29 02:23:26;;;;;;;4.27;2.20;;;;;;;5.63;38.86;99859.09;4971568;28;20060;-78
2023/03/29 02:25:53;;;;;;;2.40;2.20;;;;;;;5.47;39.28;99837.88;4971581;28;20034;-78
2023/03/29 02:28:21;;;;;;;2.90;2.13;;;;;;;5.13;39.13;99770.19;4971643;28;20121;-78
2023/03/29 02:31:10;;;;;;;4.60;2.40;;;;;;;5.56;39.11;99858.81;4971563;28;20041;-78
2023/03/29 02:33:59;;;;;;;3.70;2.30;;;;;;;5.06;39.21;99824.03;4971638;28;20094;-78
2023/03/29 02:36:37;;;;;;;3.17;2.50;;;;;;;5.42;39.05;99873.16;4996193;28;20038;-78
2023/03/29 02:39:04;;;;;;;6.77;2.80;;;;;;;5.30;38.78;99834.97;4971595;28;20026;-79
2023/03/29 02:41:31;;;;;;;4.03;2.13;;;;;;;5.58;39.19;99895.34;4971470;28;20027;-79
2023/03/29 02:44:00;;;;;;;3.63;2.33;;;;;;;5.21;39.02;99832.34;4971570;28;20392;-78
2023/03/29 02:46:26;;;;;;;2.80;2.40;;;;;;;4.84;38.88;99766.75;4986077;28;20090;-78
2023/03/29 02:48:53;;;;;;;2.57;2.20;;;;;;;5.14;39.19;99839.06;4971171;28;20440;-79
2023/03/29 02:51:32;;;;;;;4.47;2.70;;;;;;;5.19;39.00;99819.38;4971206;28;20026;-78
2023/03/29 02:54:07;;;;;;;3.47;2.13;;;;;;;5.26;38.82;99854.53;4985972;28;20575;-79
2023/03/29 02:56:48;;;;;;;4.30;2.60;;;;;;;5.33;38.58;99855.66;4971201;28;20034;-78
2023/03/29 02:59:18;;;;;;;3.73;2.53;;;;;;;4.82;38.84;99813.13;4928585;28;1238725;-78
2023/03/29 03:01:43;;;;;;;4.10;2.20;;;;;;;5.10;39.02;99883.84;4971898;28;20034;-78
2023/03/29 03:04:10;;;;;;;4.03;2.63;;;;;;;4.76;39.19;99824.97;4971970;28;20023;-78
2023/03/29 03:06:37;;;;;;;3.47;2.37;;;;;;;5.13;39.22;99877.50;4972202;28;20031;-79
2023/03/29 03:09:04;;;;;;;4.70;2.53;;;;;;;5.41;38.91;99913.41;4990264;28;20412;-78
2023/03/29 03:11:31;;;;;;;3.40;2.90;;;;;;;5.38;39.13;99915.47;4990884;28;20026;-78
2023/03/29 03:13:56;;;;;;;3.43;2.47;;;;;;;5.44;39.13;99930.63;4990459;28;20019;-78
2023/03/29 03:16:22;;;;;;;3.97;3.30;;;;;;;5.50;38.74;99922.22;4975498;28;20034;-78
2023/03/29 03:18:50;;;;;;;3.40;2.50;;;;;;;5.10;39.02;99873.38;4975451;28;20443;-78
2023/03/29 03:21:16;;;;;;;3.13;2.60;;;;;;;5.31;39.07;99916.97;4975365;28;20523;-78
2023/03/29 03:23:42;;;;;;;3.17;2.70;;;;;;;5.11;39.26;99903.81;4975290;28;20420;-78
2023/03/29 03:26:07;;;;;;;2.70;2.50;;;;;;;5.41;38.96;99931.72;4975209;28;20026;-78
2023/03/29 03:28:33;;;;;;;3.77;2.47;;;;;;;5.03;38.57;99882.72;5006429;28;20027;-78
2023/03/29 03:30:58;;;;;;;3.53;2.53;;;;;;;5.37;38.97;99963.56;4973969;28;20093;-78
2023/03/29 03:33:25;;;;;;;5.57;3.67;;;;;;;5.47;39.15;99964.41;4975217;28;20030;-79
2023/03/29 03:35:51;;;;;;;3.63;2.60;;;;;;;4.97;38.90;99890.28;4975147;28;20022;-78
2023/03/29 03:38:17;;;;;;;4.07;2.80;;;;;;;5.20;39.15;99903.97;4975168;28;20415;-78
2023/03/29 03:40:42;;;;;;;5.67;2.90;;;;;;;5.01;39.02;99892.50;4975113;28;20033;-78
2023/03/29 03:43:08;;;;;;;5.23;3.60;;;;;;;5.22;39.12;99913.38;5006160;28;20526;-78
2023/03/29 03:45:34;;;;;;;4.93;3.50;;;;;;;5.09;38.94;99908.34;4975034;28;20027;-78
2023/03/29 03:48:00;;;;;;;4.60;3.20;;;;;;;5.44;39.22;99967.28;4974965;28;20018;-79
2023/03/29 03:50:25;;;;;;;3.80;3.10;;;;;;;5.02;39.07;99925.53;4975009;28;20420;-78
2023/03/29 03:52:51;;;;;;;4.30;3.07;;;;;;;4.75;39.21;99871.22;4974779;28;20416;-78
2023/03/29 03:55:16;;;;;;;4.63;3.13;;;;;;;4.59;39.37;99873.50;4974746;28;20051;-78
2023/03/29 03:57:42;;;;;;;4.83;2.90;;;;;;;4.50;39.09;99866.44;4974683;28;20507;-78
2023/03/29 04:00:17;;;;;;;3.03;2.73;;;;;;;5.03;39.33;99940.28;4974298;28;20058;-78
2023/03/29 04:02:44;;;;;;;6.87;3.00;;;;;;;5.27;39.18;99978.41;4989286;28;20536;-78
2023/03/29 04:05:11;;;;;;;3.00;2.70;;;;;;;5.30;39.19;99999.09;4974713;28;20023;-78
2023/03/29 04:07:36;;;;;;;3.43;2.87;;;;;;;4.94;39.31;99948.09;4974667;28;20023;-78
2023/03/29 04:10:02;;;;;;;3.00;2.70;;;;;;;4.71;39.36;99947.47;4974968;28;20034;-78
2023/03/29 04:12:28;;;;;;;6.07;3.83;;;;;;;4.98;39.22;99989.56;4974624;28;20030;-78
2023/03/29 04:14:53;;;;;;;4.20;3.40;;;;;;;4.11;39.31;99888.91;4975217;28;20038;-78
2023/03/29 04:17:19;;;;;;;4.17;3.47;;;;;;;4.54;39.36;99922.75;4973722;28;20015;-78
2023/03/29 04:19:45;;;;;;;5.73;3.50;;;;;;;4.57;39.01;99937.34;4973283;28;20051;-78
2023/03/29 04:22:10;;;;;;;4.97;3.30;;;;;;;4.70;39.06;99930.94;4974185;28;20023;-78
2023/03/29 04:24:35;;;;;;;4.87;3.83;;;;;;;4.29;39.02;99889.97;4973997;28;20066;-78
2023/03/29 04:27:01;;;;;;;4.13;3.73;;;;;;;4.24;39.35;99891.31;4974065;28;20031;-78
2023/03/29 04:29:27;;;;;;;5.50;3.90;;;;;;;4.07;39.07;99882.28;4974097;28;20424;-78
2023/03/29 04:31:55;;;;;;;4.47;4.07;;;;;;;5.18;39.26;100014.03;4974301;28;20026;-78
2023/03/29 04:34:20;;;;;;;8.70;5.00;;;;;;;4.34;39.21;99881.75;4973855;28;20027;-79
2023/03/29 04:36:49;;;;;;;6.80;4.33;;;;;;;4.99;39.36;100034.88;4973885;28;20030;-78
2023/03/29 04:39:14;;;;;;;5.70;4.37;;;;;;;4.91;39.75;100014.59;4974035;28;20393;-78
2023/03/29 04:41:40;;;;;;;4.10;3.70;;;;;;;4.42;39.27;99924.59;4974217;28;20033;-78
2023/03/29 04:44:05;;;;;;;6.43;4.53;;;;;;;5.14;39.27;100012.63;4972729;28;20022;-78
2023/03/29 04:46:32;;;;;;;4.60;3.50;;;;;;;5.07;39.47;100020.19;4974274;28;20031;-78
2023/03/29 04:48:57;;;;;;;5.00;3.70;;;;;;;4.93;39.47;99991.75;4974183;28;20023;-78
2023/03/29 04:51:23;;;;;;;5.03;4.00;;;;;;;4.99;39.33;100024.41;4974665;28;20034;-79
2023/03/29 04:53:51;;;;;;;5.03;4.20;;;;;;;5.03;39.45;100025.81;4974652;28;20060;-78
2023/03/29 04:56:16;;;;;;;5.03;4.40;;;;;;;4.18;39.39;99873.53;4973060;28;20412;-78
2023/03/29 04:58:43;;;;;;;5.03;4.27;;;;;;;5.08;39.50;100028.88;4974624;28;20023;-78
2023/03/29 05:01:09;;;;;;;4.27;3.87;;;;;;;4.58;39.84;99952.06;4974456;28;20062;-78
2023/03/29 05:03:34;;;;;;;4.27;3.87;;;;;;;4.49;40.01;99977.22;4989613;28;20031;-78
2023/03/29 05:06:05;;;;;;;4.53;3.97;;;;;;;4.46;40.08;99954.78;4975036;28;20042;-78
2023/03/29 05:08:33;;;;;;;5.23;4.30;;;;;;;4.65;39.92;99988.03;4974467;28;20508;-78
2023/03/29 05:10:58;;;;;;;4.60;3.90;;;;;;;4.62;39.49;99967.38;4974612;28;20671;-78
2023/03/29 05:13:23;;;;;;;4.43;3.83;;;;;;;4.45;39.66;99960.09;4975400;28;20023;-78
2023/03/29 05:15:49;;;;;;;4.57;3.90;;;;;;;4.37;39.49;99941.59;4989866;28;20046;-78
2023/03/29 05:18:14;;;;;;;5.53;3.77;;;;;;;4.88;39.24;100001.78;4974408;28;20054;-78
2023/03/29 05:20:41;;;;;;;4.53;4.10;;;;;;;5.25;39.29;100033.53;4973235;28;20027;-78
2023/03/29 05:23:06;;;;;;;5.70;4.47;;;;;;;4.96;38.96;99969.72;4973164;28;20019;-78
2023/03/29 05:25:32;;;;;;;5.83;4.27;;;;;;;5.38;38.96;100035.91;4973071;28;20085;-78
2023/03/29 05:27:58;;;;;;;6.87;4.43;;;;;;;4.41;39.18;99896.78;4972921;28;20453;-78
2023/03/29 05:30:24;;;;;;;5.43;4.00;;;;;;;5.37;39.03;100037.69;4972941;28;20026;-78
2023/03/29 05:32:49;;;;;;;9.40;4.87;;;;;;;5.30;38.71;100039.19;4972943;28;20551;-78
2023/03/29 05:35:15;;;;;;;6.47;4.33;;;;;;;4.73;38.74;99938.53;5002250;28;20027;-79
2023/03/29 05:37:40;;;;;;;5.43;4.47;;;;;;;4.55;39.08;99900.03;5002157;28;20106;-78
2023/03/29 05:40:09;;;;;;;6.40;3.40;;;;;;;5.33;38.73;100038.09;4972760;28;20106;-78
2023/03/29 05:42:35;;;;;;;5.73;4.23;;;;;;;4.87;38.81;99954.81;4966531;28;20034;-78
2023/03/29 05:45:01;;;;;;;4.03;3.60;;;;;;;5.21;38.45;99989.41;4972724;28;20026;-78
2023/03/29 05:47:27;;;;;;;4.00;3.40;;;;;;;3.71;38.97;99774.69;4988592;28;20029;-78
2023/03/29 05:49:52;;;;;;;5.57;3.60;;;;;;;5.16;38.58;100017.75;4972726;28;20023;-78
2023/03/29 05:52:18;;;;;;;9.17;4.70;;;;;;;5.45;38.48;100059.78;4972429;28;20136;-78
2023/03/29 05:54:44;;;;;;;4.43;3.90;;;;;;;4.85;38.32;99944.50;4972612;28;20022;-78
2023/03/29 05:57:09;;;;;;;4.97;3.80;;;;;;;5.11;38.41;99969.25;4972449;28;20027;-78
2023/03/29 05:59:34;;;;;;;6.03;4.40;;;;;;;5.00;38.52;99979.81;4972385;28;20520;-78
2023/03/29 06:02:02;;;;;;;5.10;3.90;;;;;;;4.67;38.12;99922.53;4972222;28;20065;-78
2023/03/29 06:04:27;;;;;;;4.70;3.30;;;;;;;5.56;37.93;100073.59;4987315;28;20500;-78
2023/03/29 06:06:53;;;;;;;4.97;3.30;;;;;;;5.23;38.44;100008.44;4968385;28;20035;-78
2023/03/29 06:09:19;;;;;;;4.10;3.70;;;;;;;5.53;38.17;100057.31;4971597;28;20037;-78
2023/03/29 06:11:45;;;;;;;7.63;4.10;;;;;;;5.68;38.12;100080.38;4984030;28;20031;-78
2023/03/29 06:14:12;;;;;;;6.43;4.37;;;;;;;5.71;38.01;100087.97;4970460;28;20015;-78
2023/03/29 06:16:38;;;;;;;4.33;3.27;;;;;;;5.29;37.91;100008.72;4972118;28;20019;-77
2023/03/29 06:19:05;;;;;;;6.77;3.90;;;;;;;5.29;38.03;99998.25;4972375;28;20073;-77
2023/03/29 06:21:31;;;;;;;3.67;3.30;;;;;;;5.94;37.43;100058.97;4972322;28;20093;-78
2023/03/29 06:23:57;;;;;;;6.33;4.30;;;;;;;6.08;37.04;100103.16;4987153;28;20026;-78
2023/03/29 06:26:23;;;;;;;4.13;3.10;;;;;;;5.90;37.10;100066.25;4987221;28;20407;-77
2023/03/29 06:28:49;;;;;;;4.17;3.77;;;;;;;6.05;37.02;100085.91;4972016;28;20023;-77
2023/03/29 06:31:14;;;;;;;3.43;3.10;;;;;;;5.51;36.47;99993.75;4987009;28;20106;-78
2023/03/29 06:33:42;;;;;;;4.00;3.20;;;;;;;5.59;37.00;100004.41;4971917;28;20437;-77
2023/03/29 06:36:08;;;;;;;4.70;3.50;;;;;;;6.14;36.88;100081.63;4986782;28;20054;-78
2023/03/29 06:38:34;;;;;;;7.07;4.77;;;;;;;6.30;36.62;100086.34;4987069;28;20113;-80
2023/03/29 06:41:04;;;;;;;5.43;3.43;;;;;;;6.49;36.54;100111.75;4971608;28;20129;-79
2023/03/29 06:43:31;;;;;;;5.00;3.40;;;;;;;6.14;36.10;100084.25;4975240;28;20027;-78
2023/03/29 06:45:57;;;;;;;3.47;3.17;;;;;;;6.25;35.92;100071.03;4971575;28;20437;-80
2023/03/29 06:48:22;;;;;;;7.63;3.40;;;;;;;6.52;35.93;100133.28;4970150;28;20030;-77
2023/03/29 06:50:48;;;;;;;4.72;3.78;;;;;;;6.30;35.88;100079.31;4971377;28;20042;-78
2023/03/29 06:53:14;;;;;;;6.07;4.43;;;;;;;6.38;35.36;100092.56;4971968;28;20419;-78
2023/03/29 06:55:40;;;;;;;3.37;2.77;;;;;;;6.58;35.61;100119.63;4990385;28;20023;-78
2023/03/29 06:58:08;;;;;;;4.40;2.73;;;;;;;6.23;34.87;100064.25;4972419;28;20027;-78
2023/03/29 07:00:36;;;;;;;4.13;3.00;;;;;;;6.23;34.75;100078.19;4980596;28;20042;-80
2023/03/29 07:03:08;;;;;;;2.87;2.60;;;;;;;6.62;34.60;100113.13;4998182;28;20031;-78
2023/03/29 07:05:39;;;;;;;3.57;3.10;;;;;;;6.32;35.03;100060.81;4971353;28;20037;-78
2023/03/29 07:10:38;;;;;;;7.40;4.00;;;;;;;6.93;34.82;100126.94;4975191;28;20416;-78
2023/03/29 07:13:11;;;;;;;4.80;3.60;;;;;;;5.95;33.29;99948.78;5003674;28;20037;-77
2023/03/29 07:15:36;;;;;;;5.50;3.27;;;;;;;6.79;33.80;100088.00;4974555;28;20493;-78
2023/03/29 07:18:03;;;;;;;3.15;2.80;;;;;;;6.71;34.08;100059.00;4974836;28;20110;-78
2023/03/29 07:20:29;;;;;;;3.30;2.60;;;;;;;7.03;33.36;100150.56;4973312;28;20054;-78
2023/03/29 07:22:56;;;;;;;3.70;2.70;;;;;;;6.92;33.42;100113.94;4968961;28;20412;-77
2023/03/29 07:25:22;;;;;;;5.20;3.10;;;;;;;7.16;33.33;100137.94;4971414;28;20019;-79
2023/03/29 07:27:48;;;;;;;4.33;3.10;;;;;;;6.87;33.47;100090.75;4971593;28;20046;-78
2023/03/29 07:30:17;;;;;;;3.50;2.45;;;;;;;7.32;33.02;100135.56;4973601;28;20076;-78
2023/03/29 07:32:45;;;;;;;4.45;2.50;;;;;;;7.40;32.41;100136.63;4971631;28;20026;-78
2023/03/29 07:35:12;;;;;;;3.30;2.87;;;;;;;6.87;32.91;100045.31;4976708;28;20031;-78
2023/03/29 07:37:38;;;;;;;4.55;2.47;;;;;;;7.43;31.40;100139.84;4972806;28;20105;-78
2023/03/29 07:40:15;;;;;;;2.58;2.05;;;;;;;6.91;31.84;100047.50;4970925;28;20098;-79
2023/03/29 07:42:45;;;;;;;2.92;2.50;;;;;;;7.62;32.31;100139.78;4969927;28;20030;-78
2023/03/29 07:45:12;;;;;;;3.20;2.00;;;;;;;7.28;31.76;100062.44;4972406;28;20027;-78
2023/03/29 07:47:39;;;;;;;3.05;2.08;;;;;;;7.45;31.02;100116.88;4989227;28;20031;-78
2023/03/29 07:50:06;;;;;;;4.40;2.78;;;;;;;7.12;31.48;100059.59;4969996;28;20108;-78
2023/03/29 07:52:32;;;;;;;5.13;2.97;;;;;;;7.39;31.16;100092.94;4984782;28;20520;-79
2023/03/29 07:54:57;;;;;;;4.88;2.60;;;;;;;7.54;30.71;100115.19;4971808;28;20033;-78
2023/03/29 07:57:25;;;;;;;8.45;5.15;;;;;;;7.56;30.80;100095.69;4986500;28;21137;-78
2023/03/29 07:59:51;;;;;;;4.85;3.47;;;;;;;7.54;30.60;100125.69;4970941;28;20133;-79
2023/03/29 08:02:18;;;;;;;3.95;2.30;;;;;;;7.89;30.21;100161.78;4973645;28;20105;-78
2023/03/29 08:04:44;;;;;;;2.65;2.40;;;;;;;7.48;30.61;100076.34;4974373;28;20031;-78
2023/03/29 08:07:09;;;;;;;2.58;2.38;;;;;;;7.61;30.57;100087.34;4973796;28;20022;-78
2023/03/29 08:09:36;;;;;;;3.38;2.85;;;;;;;7.69;30.46;100078.75;4972217;28;20019;-78
2023/03/29 08:12:01;;;;;;;5.90;3.20;;;;;;;7.52;30.09;100052.28;4989627;28;20026;-79
2023/03/29 08:14:27;;;;;;;4.15;2.65;;;;;;;7.79;30.60;100069.00;4973093;28;20031;-79
2023/03/29 08:16:53;;;;;;;5.85;3.65;;;;;;;7.94;30.46;100068.34;4977783;28;20030;-78
2023/03/29 08:19:18;;;;;;;3.88;2.70;;;;;;;8.26;30.43;100098.63;4989186;28;20171;-79
2023/03/29 08:21:44;;;;;;;4.78;2.72;;;;;;;7.58;29.77;100014.91;4978532;28;20081;-78
2023/03/29 08:24:10;;;;;;;2.63;2.00;;;;;;;7.73;29.49;100027.53;4973567;28;20582;-78
2023/03/29 08:26:35;;;;;;;4.15;3.10;;;;;;;7.72;29.46;100000.44;4974944;28;20077;-79
2023/03/29 08:29:01;;;;;;;5.78;3.65;;;;;;;8.22;29.38;100058.63;4985727;28;20082;-81
2023/03/29 08:31:26;;;;;;;5.97;3.50;;;;;;;8.58;29.10;100113.91;4979249;28;20023;-79
2023/03/29 08:33:52;;;;;;;3.33;2.53;;;;;;;8.64;28.35;100107.22;4999755;28;20442;-79
2023/03/29 08:36:17;;;;;;;5.10;2.40;;;;;;;8.91;27.92;100122.91;4978172;28;20089;-78
2023/03/29 08:38:44;;;;;;;2.55;2.35;;;;;;;8.47;28.08;100030.75;4967901;28;20097;-78
2023/03/29 08:41:24;;;;;;;5.18;3.30;;;;;;;8.97;27.09;100113.59;4972004;28;20027;-78
2023/03/29 08:44:19;;;;;;;5.15;2.50;;;;;;;9.16;26.73;100101.03;4975971;28;20499;-79
2023/03/29 08:46:55;;;;;;;4.10;2.85;;;;;;;9.39;26.83;100092.59;4968269;28;20043;-79
2023/03/29 08:49:21;;;;;;;2.80;2.50;;;;;;;9.43;27.31;100105.31;4974959;28;20038;-78
2023/03/29 08:51:55;;;;;;;3.38;2.20;;;;;;;9.27;26.97;100046.44;4980251;28;20497;-78
2023/03/29 08:54:26;;;;;;;2.88;2.15;;;;;;;9.77;26.87;100112.41;4972918;28;20385;-78
2023/03/29 08:56:57;;;;;;;3.05;2.50;;;;;;;9.74;27.03;100087.19;4970742;28;20029;-78
2023/03/29 08:59:31;;;;;;;2.28;2.00;;;;;;;9.66;26.13;100081.03;4971561;28;20050;-78
2023/03/29 09:01:58;;;;;;;3.33;1.95;;;;;;;9.54;26.14;100028.59;4971487;28;20034;-78
2023/03/29 09:04:32;;;;;;;2.80;2.45;;;;;;;10.18;25.52;100111.56;4972620;28;20030;-78
2023/03/29 09:06:58;;;;;;;4.75;3.05;;;;;;;9.71;26.70;99987.31;4972729;28;20027;-78
2023/03/29 09:09:30;;;;;;;3.45;2.47;;;;;;;10.28;26.15;100097.41;5002363;28;20062;-78
2023/03/29 09:11:56;;;;;;;2.17;1.70;;;;;;;10.24;25.94;100106.66;4984992;28;20026;-78
2023/03/29 09:14:39;;;;;;;3.95;1.92;;;;;;;10.32;25.89;100106.66;4971752;28;20019;-78
2023/03/29 09:17:46;;;;;;;2.28;2.00;;;;;;;9.92;26.13;100083.63;4981570;28;20035;-77
2023/03/29 09:20:21;;;;;;;2.70;2.50;;;;;;;10.13;25.52;100108.56;4941638;28;20115;-79
2023/03/29 09:22:56;;;;;;;2.45;2.25;;;;;;;10.52;25.68;100107.22;5001269;28;20124;-78
2023/03/29 09:25:55;;;;;;;4.93;2.78;;;;;;;10.14;25.17;100031.06;4969999;28;20492;-78
2023/03/29 09:28:39;;;;;;;2.42;2.22;;;;;;;10.81;24.71;100105.72;4971332;28;20035;-78
2023/03/29 09:31:28;;;;;;;2.58;2.30;;;;;;;11.03;25.22;100109.50;4971436;28;20034;-78
2023/03/29 09:34:13;;;;;;;2.60;2.38;;;;;;;11.46;23.98;100097.72;4953449;28;20027;-78
2023/03/29 09:37:10;;;;;;;3.58;3.28;;;;;;;11.60;23.08;100035.34;4967325;28;20014;-78
2023/03/29 09:39:38;;;;;;;2.28;2.05;;;;;;;11.86;24.40;100060.72;4971684;28;20027;-77
2023/03/29 09:42:10;;;;;;;3.20;2.45;;;;;;;11.98;22.99;100085.81;4971494;28;20050;-78
2023/03/29 09:44:56;;;;;;;;;;;;;;;12.49;24.25;100096.75;4972117;28;20119;-78
2023/03/29 09:48:06;;;;;;;2.83;2.38;;;;;;;12.60;23.74;100128.09;4970570;28;19921;-78
2023/03/29 09:50:36;;;;;;;3.42;2.67;;;;;;;11.93;23.43;99996.38;4971712;28;20046;-79
2023/03/29 09:53:04;;;;;;;3.70;2.78;;;;;;;12.63;23.48;100096.81;4969736;28;20457;-78
2023/03/29 09:55:32;;;;;;;4.03;2.70;;;;;;;12.09;22.98;100016.59;4990543;28;20084;-78
2023/03/29 09:58:00;;;;;;;4.93;3.00;;;;;;;12.58;22.92;100096.50;4991798;28;20038;-78
2023/03/29 10:00:26;;;;;;;3.17;2.70;;;;;;;12.67;22.66;100090.16;4989083;28;20043;-78
2023/03/29 10:02:55;;;;;;;2.40;1.92;;;;;;;12.88;22.53;100084.19;4977409;28;20026;-78
2023/03/29 10:05:24;;;;;;;2.50;1.92;;;;;;;12.20;22.47;100092.13;5002687;28;20126;-78
2023/03/29 10:07:53;;;;;;;2.78;1.90;;;;;;;11.87;23.10;100089.63;4991944;28;20030;-78
2023/03/29 10:10:26;;;;;;;4.00;2.17;;;;;;;12.06;22.11;100065.41;4992069;28;20109;-78
2023/03/29 10:12:58;;;;;;;2.92;1.88;;;;;;;11.93;22.37;100062.53;5007058;28;20072;-79
2023/03/29 10:15:28;;;;;;;2.42;2.20;;;;;;;12.14;22.72;100074.31;4992095;28;20112;-77
2023/03/29 10:18:04;;;;;;;3.15;2.15;;;;;;;11.95;22.61;100004.94;4993965;28;20084;-76
2023/03/29 10:20:33;;;;;;;2.05;1.60;;;;;;;12.28;22.66;100010.84;4979529;28;20042;-78
2023/03/29 10:22:58;;;;;;;5.50;1.67;;;;;;;12.88;22.11;100102.75;4976287;28;20579;-79
2023/03/29 10:25:32;;;;;;;6.63;3.80;;;;;;;12.58;21.85;99992.38;4975951;28;20105;-78
2023/03/29 10:28:14;;;;;;;3.30;2.13;;;;;;;12.67;20.81;99946.28;4979520;28;20146;-78
2023/03/29 10:30:41;;;;;;;;;;;;;;;13.72;21.33;100084.00;5009617;28;20499;-78
2023/03/29 10:33:17;;;;;;;2.33;1.88;;;;;;;12.97;21.63;100034.56;4994332;28;20009;-78
2023/03/29 10:35:45;;;;;;;2.65;1.83;;;;;;;13.41;21.70;100081.56;4989322;28;20026;-79
2023/03/29 10:38:16;;;;;;;1.92;1.70;;;;;;;13.86;21.04;100085.81;4975967;28;20389;-78
2023/03/29 10:40:49;;;;;;;2.17;1.80;;;;;;;14.27;21.11;100064.84;4982294;28;20030;-78
2023/03/29 10:43:24;;;;;;;4.03;1.70;;;;;;;13.12;21.00;100010.72;4992628;28;20038;-78
2023/03/29 10:45:56;;;;;;;1.85;1.60;;;;;;;13.68;21.62;100112.75;4977183;28;20093;-78
2023/03/29 10:48:29;;;;;;;3.80;1.83;;;;;;;13.39;21.10;99993.38;4984123;28;20026;-78
2023/03/29 10:50:58;;;;;;;4.85;1.95;;;;;;;13.56;21.04;100008.09;4993156;28;20498;-78
2023/03/29 10:53:29;;;;;;;4.45;2.40;;;;;;;13.25;21.04;100075.41;4992646;28;20076;-79
2023/03/29 10:56:27;;;;;;;2.67;1.90;;;;;;;13.88;20.39;100078.47;4991226;28;20041;-78
2023/03/29 10:59:27;;;;;;;2.78;2.15;;;;;;;14.08;18.81;100076.88;4963822;28;20035;-78
2023/03/29 11:01:59;;;;;;;2.30;1.88;;;;;;;14.11;19.88;100076.50;4998926;28;20026;-79
2023/03/29 11:04:33;;;;;;;2.42;2.00;;;;;;;13.85;20.08;100074.38;4988039;28;20411;-79
2023/03/29 11:07:46;;;;;;;3.03;2.22;;;;;;;13.97;19.33;100056.13;4986985;28;20574;-79
2023/03/29 11:10:30;;;;;;;2.65;1.77;;;;;;;14.22;19.67;100061.94;4970167;28;20027;-79
2023/03/29 11:13:01;;;;;;;4.22;2.30;;;;;;;14.45;19.30;100048.50;4978588;28;20021;-78
2023/03/29 11:15:45;;;;;;;2.78;1.92;;;;;;;14.20;20.10;100053.34;4994096;28;20022;-79
2023/03/29 11:18:26;;;;;;;2.90;2.30;;;;;;;14.38;19.66;100045.75;4994346;28;20034;-78
2023/03/29 11:20:51;;;;;;;2.47;1.90;;;;;;;14.57;18.95;100037.16;4993163;28;20036;-79
2023/03/29 11:23:45;;;;;;;2.55;1.95;;;;;;;14.90;18.53;100036.63;4989398;28;20111;-80
2023/03/29 11:26:17;;;;;;;3.10;1.88;;;;;;;14.85;18.35;99993.81;4988529;28;20030;-79
2023/03/29 11:29:10;;;;;;;2.67;2.20;;;;;;;14.89;17.86;100005.72;4992760;28;20026;-79
2023/03/29 11:31:47;;;;;;;5.38;2.90;;;;;;;14.90;18.74;100021.50;4992053;28;20054;-79
2023/03/29 11:34:28;;;;;;;4.82;2.03;;;;;;;15.00;18.57;100020.31;4994236;28;20106;-79
2023/03/29 11:37:17;;;;;;;4.22;2.58;;;;;;;14.23;19.38;99950.19;4994641;28;20022;-79
2023/03/29 11:40:27;;;;;;;2.30;1.90;;;;;;;14.75;18.61;99999.47;5001104;28;20058;-79
2023/03/29 11:42:57;;;;;;;2.28;1.85;;;;;;;14.87;19.08;99984.66;5005552;28;20037;-79
2023/03/29 11:45:29;;;;;;;3.50;2.03;;;;;;;15.40;18.30;100008.06;4998861;28;20036;-79
2023/03/29 11:47:58;;;;;;;3.90;2.67;;;;;;;14.98;18.45;99927.44;4990784;28;20026;-79
2023/03/29 11:50:35;;;;;;;3.67;2.75;;;;;;;15.54;17.59;99965.31;4997419;28;20498;-79
2023/03/29 11:53:52;;;;;;;2.40;1.67;;;;;;;15.82;17.83;100007.84;4993467;28;20014;-78
2023/03/29 11:56:28;;;;;;;2.83;2.40;;;;;;;15.38;17.62;99994.94;4982120;28;20088;-78